createdAt,value
2023-02-16T00:01:35.705Z,99734.33
2023-02-16T00:06:37.574Z,99733.95
2023-02-16T00:11:58.062Z,99732.73
2023-02-16T00:17:00.521Z,99728.95
2023-02-16T00:22:02.478Z,99728.86
2023-02-16T00:27:12.850Z,99723.73
2023-02-16T00:32:14.810Z,99716.04
2023-02-16T00:37:19.377Z,99706.05
2023-02-16T00:42:23.711Z,99701.09
2023-02-16T00:47:29.417Z,99694.52
2023-02-16T00:52:51.069Z,99689.86
2023-02-16T00:57:53.664Z,99688.91
2023-02-16T01:02:58.542Z,99681.36
2023-02-16T01:08:20.167Z,99679.96
2023-02-16T01:13:24.430Z,99674.91
2023-02-16T01:18:26.397Z,99662.28
2023-02-16T01:23:29.023Z,99658.17
2023-02-16T01:28:34.125Z,99649.41
2023-02-16T01:33:36.613Z,99648.59
2023-02-16T01:38:38.439Z,99641.04
2023-02-16T01:43:50.505Z,99633.84
2023-02-16T01:48:52.558Z,99627.39
2023-02-16T01:53:59.546Z,99631.55
2023-02-16T01:59:24.921Z,99631.45
2023-02-16T02:05:15.752Z,99622.23
2023-02-16T02:10:50.813Z,99622.86
2023-02-16T02:15:53.468Z,99616.64
2023-02-16T02:21:30.001Z,99609.02
2023-02-16T02:26:53.561Z,99605.41
2023-02-16T02:32:18.877Z,99604.16
2023-02-16T02:37:38.930Z,99602.54
2023-02-16T02:42:59.191Z,99601.74
2023-02-16T02:48:01.552Z,99607.52
2023-02-16T02:53:10.098Z,99608.62
2023-02-16T02:58:32.273Z,99611.94
2023-02-16T03:03:55.385Z,99608.94
2023-02-16T03:09:04.106Z,99610.81
2023-02-16T03:14:10.102Z,99616.05
2023-02-16T03:19:32.633Z,99617.45
2023-02-16T03:24:53.104Z,99623.27
2023-02-16T03:29:56.697Z,99623.00
2023-02-16T03:34:58.515Z,99625.41
2023-02-16T03:40:19.425Z,99623.56
2023-02-16T03:45:22.149Z,99627.32
2023-02-16T03:50:25.972Z,99624.23
2023-02-16T03:55:27.823Z,99616.30
2023-02-16T04:00:31.173Z,99617.53
2023-02-16T04:05:33.142Z,99620.41
2023-02-16T04:10:35.318Z,99611.80
2023-02-16T04:15:37.618Z,99613.93
2023-02-16T04:20:39.502Z,99612.92
2023-02-16T04:25:41.399Z,99612.80
2023-02-16T04:30:43.394Z,99607.21
2023-02-16T04:35:45.366Z,99607.73
2023-02-16T04:40:47.115Z,99602.13
2023-02-16T04:45:48.879Z,99600.73
2023-02-16T04:50:50.929Z,99594.02
2023-02-16T04:55:52.660Z,99587.36
2023-02-16T05:00:54.442Z,99588.55
2023-02-16T05:05:56.253Z,99592.38
2023-02-16T05:11:17.336Z,99591.94
2023-02-16T05:16:23.025Z,99591.13
2023-02-16T05:21:30.840Z,99588.02
2023-02-16T05:26:36.103Z,99585.10
2023-02-16T05:31:38.048Z,99582.09
2023-02-16T05:36:39.950Z,99583.20
2023-02-16T05:41:41.886Z,99580.83
2023-02-16T05:46:45.977Z,99581.77
2023-02-16T05:51:48.012Z,99590.80
2023-02-16T05:56:51.600Z,99595.02
2023-02-16T06:01:53.527Z,99591.55
2023-02-16T06:06:55.417Z,99592.47
2023-02-16T06:11:57.204Z,99599.38
2023-02-16T06:17:00.928Z,99598.24
2023-02-16T06:22:02.796Z,99597.09
2023-02-16T06:27:05.086Z,99600.40
2023-02-16T06:32:06.939Z,99598.91
2023-02-16T06:37:08.847Z,99598.63
2023-02-16T06:42:10.732Z,99593.55
2023-02-16T06:47:12.553Z,99589.58
2023-02-16T06:52:14.418Z,99590.02
2023-02-16T06:57:16.156Z,99592.63
2023-02-16T07:02:17.932Z,99593.23
2023-02-16T07:07:19.705Z,99595.67
2023-02-16T07:12:21.470Z,99604.42
2023-02-16T07:17:23.255Z,99608.11
2023-02-16T07:22:43.506Z,99610.20
2023-02-16T07:27:45.396Z,99607.14
2023-02-16T07:32:48.371Z,99602.77
2023-02-16T07:37:52.148Z,99604.20
2023-02-16T07:42:54.284Z,99603.55
2023-02-16T07:47:56.117Z,99606.48
2023-02-16T07:53:01.425Z,99604.48
2023-02-16T07:58:04.235Z,99600.59
2023-02-16T08:03:06.841Z,99596.15
2023-02-16T08:08:08.844Z,99601.31
2023-02-16T08:13:10.654Z,99596.16
2023-02-16T08:18:12.565Z,99598.46
2023-02-16T08:23:17.320Z,99603.70
2023-02-16T08:28:21.687Z,99600.45
2023-02-16T08:33:25.143Z,99596.67
2023-02-16T08:38:27.144Z,99595.08
2023-02-16T08:43:28.977Z,99592.23
2023-02-16T08:48:34.969Z,99587.93
2023-02-16T08:53:38.286Z,99581.67
2023-02-16T08:58:40.649Z,99579.82
2023-02-16T09:03:44.515Z,99573.22
2023-02-16T09:08:52.119Z,99571.91
2023-02-16T09:13:54.270Z,99577.90
2023-02-16T09:18:56.899Z,99580.02
2023-02-16T09:24:04.925Z,99582.17
